createdAt,value
2022-08-17T00:00:35.006Z,7.85
2022-08-17T00:03:26.354Z,6.50
2022-08-17T00:06:07.001Z,6.57
2022-08-17T00:08:44.487Z,6.47
2022-08-17T00:11:34.529Z,6.50
2022-08-17T00:14:14.059Z,6.18
2022-08-17T00:16:56.982Z,7.10
2022-08-17T00:19:26.225Z,6.75
2022-08-17T00:22:32.713Z,6.93
2022-08-17T00:24:45.259Z,6.97
2022-08-17T00:27:12.295Z,7.22
2022-08-17T00:29:39.323Z,6.47
2022-08-17T00:33:15.124Z,7.20
2022-08-17T00:34:54.087Z,6.43
2022-08-17T00:37:21.550Z,8.43
2022-08-17T00:39:48.623Z,7.10
2022-08-17T00:42:21.250Z,7.40
2022-08-17T00:44:48.868Z,7.88
2022-08-17T00:47:15.903Z,8.02
2022-08-17T00:49:43.078Z,5.95
2022-08-17T00:52:19.182Z,9.40
2022-08-17T00:54:52.201Z,6.60
2022-08-17T00:57:29.105Z,7.18
2022-08-17T01:00:21.291Z,6.85
2022-08-17T01:02:49.234Z,7.22
2022-08-17T01:05:25.886Z,5.85
2022-08-17T01:07:55.161Z,6.55
2022-08-17T01:10:58.444Z,6.82
2022-08-17T01:13:25.455Z,6.13
2022-08-17T01:16:07.901Z,7.03
2022-08-17T01:18:36.014Z,5.95
2022-08-17T01:21:20.226Z,6.38
2022-08-17T01:23:47.922Z,5.60
2022-08-17T01:26:16.186Z,6.47
2022-08-17T01:28:54.242Z,6.57
2022-08-17T01:31:28.561Z,7.00
2022-08-17T01:33:59.860Z,5.30
2022-08-17T01:36:29.253Z,6.32
2022-08-17T01:38:56.742Z,5.72
2022-08-17T01:41:24.791Z,7.20
2022-08-17T01:44:03.457Z,6.18
2022-08-17T01:46:36.150Z,6.45
2022-08-17T01:49:09.198Z,6.22
2022-08-17T01:51:37.301Z,6.10
2022-08-17T01:54:11.542Z,7.10
2022-08-17T01:56:43.741Z,5.55
2022-08-17T01:59:18.467Z,6.97
2022-08-17T02:01:47.717Z,6.38
2022-08-17T02:04:16.144Z,7.10
2022-08-17T02:06:52.461Z,6.70
2022-08-17T02:09:23.971Z,5.70
2022-08-17T02:11:58.934Z,6.53
2022-08-17T02:14:26.906Z,6.72
2022-08-17T02:16:54.661Z,6.45
2022-08-17T02:19:22.406Z,6.78
2022-08-17T02:21:52.530Z,6.05
2022-08-17T02:24:59.635Z,8.32
2022-08-17T02:27:16.600Z,6.38
2022-08-17T02:29:44.078Z,6.60
2022-08-17T02:32:27.458Z,6.95
2022-08-17T02:35:00.574Z,7.85
2022-08-17T02:37:29.759Z,6.45
2022-08-17T02:39:58.702Z,8.38
2022-08-17T02:42:38.506Z,6.32
2022-08-17T02:45:15.695Z,7.65
2022-08-17T02:47:44.189Z,7.63
2022-08-17T02:50:15.187Z,7.55
2022-08-17T02:52:48.821Z,7.50
2022-08-17T02:55:33.919Z,7.57
2022-08-17T03:00:37.134Z,7.30
2022-08-17T03:03:06.045Z,5.88
2022-08-17T03:05:36.339Z,6.85
2022-08-17T03:08:05.631Z,7.22
2022-08-17T03:10:33.965Z,6.82
2022-08-17T03:13:01.561Z,6.32
2022-08-17T03:15:33.477Z,7.20
2022-08-17T03:18:02.518Z,5.80
2022-08-17T03:20:33.550Z,6.78
2022-08-17T03:23:02.814Z,6.32
2022-08-17T03:25:39.070Z,5.90
2022-08-17T03:28:07.374Z,6.10
2022-08-17T03:30:36.059Z,6.55
2022-08-17T03:33:07.383Z,5.60
2022-08-17T03:35:37.583Z,6.07
2022-08-17T03:38:05.210Z,5.78
2022-08-17T03:40:34.626Z,5.65
2022-08-17T03:43:23.034Z,6.50
2022-08-17T03:46:10.972Z,5.22
2022-08-17T03:49:13.529Z,5.60
2022-08-17T03:51:59.164Z,5.90
2022-08-17T03:54:44.821Z,6.00
2022-08-17T03:57:12.899Z,6.32
2022-08-17T03:59:40.881Z,6.50
2022-08-17T04:02:15.968Z,6.18
2022-08-17T04:04:43.290Z,4.65
2022-08-17T04:07:10.571Z,5.70
2022-08-17T04:09:38.040Z,6.07
2022-08-17T04:12:05.912Z,6.68
2022-08-17T04:14:51.494Z,6.50
2022-08-17T04:17:24.932Z,5.60
2022-08-17T04:19:53.396Z,5.35
2022-08-17T04:22:30.042Z,5.95
2022-08-17T04:24:59.138Z,6.55
2022-08-17T04:27:26.118Z,5.85
2022-08-17T04:29:55.602Z,6.80
2022-08-17T04:32:58.399Z,5.55
2022-08-17T04:35:11.658Z,6.75
2022-08-17T04:37:39.014Z,5.45
2022-08-17T04:40:27.175Z,5.45
2022-08-17T04:43:04.782Z,5.72
2022-08-17T04:45:32.616Z,5.15
2022-08-17T04:48:00.981Z,6.38
2022-08-17T04:50:28.817Z,5.32
2022-08-17T04:52:56.914Z,5.63
2022-08-17T04:55:24.370Z,5.82
2022-08-17T04:57:51.379Z,5.22
2022-08-17T05:00:18.730Z,5.78
2022-08-17T05:02:50.054Z,5.50
2022-08-17T05:05:28.242Z,5.95
2022-08-17T05:07:58.622Z,6.18
2022-08-17T05:10:31.706Z,6.53
2022-08-17T05:13:15.899Z,5.97
2022-08-17T05:15:47.647Z,4.95
2022-08-17T05:18:16.547Z,6.32
2022-08-17T05:20:44.452Z,6.28
2022-08-17T05:23:16.663Z,6.43
2022-08-17T05:25:47.927Z,6.10
2022-08-17T05:28:20.844Z,7.38
2022-08-17T05:30:51.945Z,8.23
2022-08-17T05:33:30.111Z,8.10
2022-08-17T05:35:59.494Z,7.75
2022-08-17T05:38:29.543Z,7.55
2022-08-17T05:41:00.279Z,7.70
2022-08-17T05:43:32.567Z,7.13
2022-08-17T05:48:59.187Z,7.93
2022-08-17T05:52:00.133Z,7.95
2022-08-17T05:55:17.489Z,8.07
2022-08-17T05:58:09.894Z,8.88
2022-08-17T06:00:47.908Z,9.15
2022-08-17T06:03:34.249Z,9.30
2022-08-17T06:06:41.471Z,8.60
2022-08-17T06:09:37.086Z,11.38
2022-08-17T06:12:39.911Z,10.20
2022-08-17T06:15:31.551Z,9.32
2022-08-17T06:18:07.827Z,10.43
2022-08-17T06:20:58.401Z,11.13
2022-08-17T06:23:40.734Z,12.30
2022-08-17T06:26:22.054Z,10.10
2022-08-17T06:29:02.814Z,10.30
2022-08-17T06:31:36.876Z,9.73
2022-08-17T06:34:10.513Z,9.57
2022-08-17T06:37:09.170Z,9.15
2022-08-17T06:40:11.035Z,10.15
2022-08-17T06:43:06.430Z,8.77
2022-08-17T06:46:01.811Z,8.68
2022-08-17T06:49:07.736Z,9.63
2022-08-17T06:52:08.223Z,8.77
2022-08-17T06:55:18.161Z,8.23
2022-08-17T06:57:53.501Z,10.15
2022-08-17T07:00:28.324Z,10.02
2022-08-17T07:03:26.341Z,9.82
2022-08-17T07:06:00.861Z,9.00
2022-08-17T07:08:54.923Z,9.40
2022-08-17T07:11:53.315Z,9.82
2022-08-17T07:14:40.965Z,9.43
2022-08-17T07:17:13.988Z,11.70
2022-08-17T07:19:45.443Z,11.23
2022-08-17T07:23:00.201Z,12.68
2022-08-17T07:25:30.405Z,10.90
2022-08-17T07:28:05.302Z,13.38
2022-08-17T07:30:49.193Z,11.85
2022-08-17T07:33:23.762Z,12.23
2022-08-17T07:35:52.114Z,11.88
2022-08-17T07:38:25.370Z,11.82
2022-08-17T07:41:03.483Z,10.55
2022-08-17T07:43:39.999Z,12.15
2022-08-17T07:46:52.381Z,13.27
2022-08-17T07:49:46.373Z,12.50
2022-08-17T07:52:47.945Z,12.43
2022-08-17T07:55:34.885Z,14.48
2022-08-17T07:58:03.664Z,13.52
2022-08-17T08:00:33.522Z,11.30
2022-08-17T08:03:28.635Z,13.77
2022-08-17T08:06:01.362Z,11.82
2022-08-17T08:08:43.686Z,11.98
2022-08-17T08:11:29.628Z,11.07
2022-08-17T08:14:22.647Z,10.38
2022-08-17T08:17:07.065Z,11.90
2022-08-17T08:19:37.158Z,10.73
2022-08-17T08:22:11.099Z,11.45
2022-08-17T08:25:00.111Z,12.52
2022-08-17T08:27:50.154Z,13.02
2022-08-17T08:30:21.921Z,12.07
2022-08-17T08:35:54.008Z,10.52
2022-08-17T08:38:50.836Z,10.73
2022-08-17T08:42:13.016Z,12.40
2022-08-17T08:48:02.392Z,11.55
2022-08-17T08:51:00.932Z,12.00
2022-08-17T08:54:05.908Z,12.15
2022-08-17T09:00:07.250Z,10.70
2022-08-17T09:02:58.569Z,12.32
2022-08-17T09:05:42.777Z,12.90
2022-08-17T09:08:28.214Z,9.80
2022-08-17T09:11:31.088Z,12.48
2022-08-17T09:14:26.761Z,11.25
2022-08-17T09:17:12.738Z,11.52
2022-08-17T09:20:01.308Z,12.82
2022-08-17T09:22:38.556Z,12.10
2022-08-17T09:25:23.268Z,10.05
2022-08-17T09:28:13.300Z,11.48
2022-08-17T09:30:52.581Z,9.75
2022-08-17T09:33:29.014Z,11.05
2022-08-17T09:36:07.275Z,11.40
2022-08-17T09:39:10.138Z,10.77
2022-08-17T09:41:51.728Z,9.60
2022-08-17T09:44:37.846Z,10.07
2022-08-17T09:47:24.809Z,11.95
2022-08-17T09:50:04.774Z,12.32
2022-08-17T09:52:32.579Z,10.02
2022-08-17T09:55:01.855Z,11.07
2022-08-17T09:58:09.950Z,10.88
2022-08-17T10:00:57.811Z,9.45
2022-08-17T10:03:51.603Z,10.15
2022-08-17T10:06:24.763Z,10.65
2022-08-17T10:09:02.161Z,9.55
2022-08-17T10:11:57.688Z,10.18
2022-08-17T10:15:07.752Z,9.73
2022-08-17T10:18:14.738Z,12.52
2022-08-17T10:21:24.725Z,12.32
2022-08-17T10:25:21.578Z,11.85
2022-08-17T10:27:54.323Z,12.50
2022-08-17T10:30:26.718Z,13.27
2022-08-17T10:33:13.636Z,13.52
2022-08-17T10:36:06.397Z,10.43
2022-08-17T10:38:49.737Z,11.70
2022-08-17T10:41:38.220Z,11.70
2022-08-17T10:44:40.698Z,13.13
2022-08-17T10:47:16.254Z,10.00
2022-08-17T10:49:56.034Z,10.70
2022-08-17T10:52:25.168Z,9.85
2022-08-17T10:54:54.896Z,10.93
2022-08-17T10:57:37.326Z,12.52
2022-08-17T11:00:27.820Z,9.40
2022-08-17T11:02:57.825Z,10.75
2022-08-17T11:05:44.619Z,9.70
2022-08-17T11:08:57.036Z,10.68
2022-08-17T11:11:50.925Z,12.63
2022-08-17T11:15:01.737Z,12.27
2022-08-17T11:17:49.594Z,12.30
2022-08-17T11:21:12.182Z,11.98
2022-08-17T11:24:24.101Z,12.52
2022-08-17T11:27:28.660Z,13.45
2022-08-17T11:30:03.891Z,11.10
2022-08-17T11:32:53.024Z,11.55
2022-08-17T11:35:22.163Z,12.52
2022-08-17T11:38:34.676Z,12.75
2022-08-17T11:41:36.175Z,10.75
2022-08-17T11:44:28.259Z,11.45
2022-08-17T11:47:56.984Z,12.57
2022-08-17T11:51:35.035Z,11.52
2022-08-17T11:54:33.308Z,11.50
2022-08-17T11:57:27.677Z,12.02
2022-08-17T12:00:11.414Z,13.20
2022-08-17T12:02:48.513Z,10.75
2022-08-17T12:05:25.223Z,10.68
2022-08-17T12:08:04.617Z,10.32
2022-08-17T12:10:36.654Z,11.10
2022-08-17T12:13:14.487Z,9.95
2022-08-17T12:15:49.687Z,11.82
2022-08-17T12:18:33.603Z,12.27
2022-08-17T12:21:48.639Z,9.55
2022-08-17T12:25:04.775Z,10.32
2022-08-17T12:28:04.211Z,9.93
2022-08-17T12:30:31.865Z,9.13
2022-08-17T12:32:59.782Z,10.68
2022-08-17T12:35:38.945Z,10.07
2022-08-17T12:38:26.888Z,9.50
2022-08-17T12:40:58.494Z,9.95
2022-08-17T12:43:32.835Z,9.40
2022-08-17T12:46:13.236Z,9.85
2022-08-17T12:48:59.688Z,9.73
2022-08-17T12:51:34.227Z,7.85
2022-08-17T12:54:02.422Z,8.48
2022-08-17T12:56:29.888Z,9.00
2022-08-17T12:58:57.787Z,10.15
2022-08-17T13:01:26.468Z,9.00
2022-08-17T13:03:59.577Z,11.38
2022-08-17T13:06:34.799Z,10.20
2022-08-17T13:09:18.341Z,8.15
2022-08-17T13:11:56.664Z,10.38
2022-08-17T13:14:23.790Z,9.00
2022-08-17T13:17:07.150Z,10.55
2022-08-17T13:19:50.077Z,8.27
2022-08-17T13:22:23.116Z,7.72
2022-08-17T13:25:00.771Z,7.65
2022-08-17T13:27:32.442Z,7.60
2022-08-17T13:30:11.738Z,8.55
2022-08-17T13:32:48.159Z,8.55
2022-08-17T13:35:45.902Z,9.40
2022-08-17T13:38:51.084Z,8.48
2022-08-17T13:41:38.922Z,8.63
2022-08-17T13:44:33.713Z,8.90
2022-08-17T13:47:03.006Z,8.30
2022-08-17T13:49:41.574Z,7.85
2022-08-17T13:52:41.270Z,9.50
2022-08-17T13:55:22.876Z,7.10
2022-08-17T13:58:06.536Z,9.00
2022-08-17T14:00:36.839Z,9.93
2022-08-17T14:03:05.628Z,9.45
2022-08-17T14:05:33.868Z,8.10
2022-08-17T14:08:06.944Z,8.80
2022-08-17T14:10:36.307Z,8.63
2022-08-17T14:13:04.400Z,9.05
2022-08-17T14:15:54.662Z,9.10
2022-08-17T14:18:35.480Z,9.70
2022-08-17T14:21:09.400Z,8.68
2022-08-17T14:23:37.823Z,9.25
2022-08-17T14:26:05.532Z,9.00
2022-08-17T14:28:33.256Z,10.10
2022-08-17T14:31:03.791Z,8.60
2022-08-17T14:33:30.896Z,8.65
2022-08-17T14:35:58.661Z,11.48
2022-08-17T14:38:25.735Z,7.35
2022-08-17T14:40:52.989Z,8.93
2022-08-17T14:43:20.970Z,7.93
2022-08-17T14:45:47.969Z,8.98
2022-08-17T14:48:15.846Z,8.07
2022-08-17T14:50:44.195Z,8.25
2022-08-17T14:53:16.061Z,11.10
2022-08-17T14:55:47.350Z,9.00
2022-08-17T14:58:15.816Z,9.75
2022-08-17T15:00:43.607Z,9.73
2022-08-17T15:03:11.938Z,7.68
2022-08-17T15:05:40.318Z,8.90
2022-08-17T15:08:07.848Z,8.32
2022-08-17T15:10:36.502Z,7.43
2022-08-17T15:13:04.100Z,9.07
2022-08-17T15:15:31.264Z,8.07
2022-08-17T15:17:59.825Z,8.43
2022-08-17T15:20:30.148Z,7.03
2022-08-17T15:22:59.030Z,8.27
2022-08-17T15:25:30.290Z,7.25
2022-08-17T15:27:58.285Z,7.75
2022-08-17T15:30:26.553Z,9.52
2022-08-17T15:32:56.582Z,7.82
2022-08-17T15:35:29.745Z,6.80
2022-08-17T15:38:06.127Z,6.80
2022-08-17T15:40:44.333Z,8.55
2022-08-17T15:43:17.574Z,7.13
2022-08-17T15:45:52.910Z,7.10
2022-08-17T15:48:43.002Z,7.53
2022-08-17T15:51:17.811Z,9.73
2022-08-17T15:53:49.550Z,6.63
2022-08-17T15:56:17.194Z,8.48
2022-08-17T15:58:46.795Z,6.57
2022-08-17T16:01:42.243Z,9.07
2022-08-17T16:04:26.820Z,8.02
2022-08-17T16:06:54.958Z,7.40
2022-08-17T16:09:22.054Z,9.40
2022-08-17T16:11:53.741Z,6.95
2022-08-17T16:14:24.271Z,7.82
2022-08-17T16:16:51.715Z,8.55
2022-08-17T16:19:18.702Z,8.43
2022-08-17T16:21:45.926Z,8.07
2022-08-17T16:24:13.691Z,9.23
2022-08-17T16:26:42.578Z,7.95
2022-08-17T16:29:10.745Z,8.63
2022-08-17T16:31:38.481Z,8.98
2022-08-17T16:34:17.767Z,7.85
2022-08-17T16:36:55.333Z,7.45
2022-08-17T16:39:29.142Z,13.18
2022-08-17T16:41:57.608Z,10.05
2022-08-17T16:44:28.886Z,12.07
2022-08-17T16:46:57.434Z,11.30
2022-08-17T16:49:35.509Z,8.63
2022-08-17T16:52:10.715Z,8.80
2022-08-17T16:54:43.649Z,12.43
2022-08-17T16:57:13.423Z,9.95
2022-08-17T16:59:44.887Z,11.73
2022-08-17T17:02:23.505Z,13.45
2022-08-17T17:05:17.666Z,10.25
2022-08-17T17:08:03.768Z,10.93
2022-08-17T17:11:25.026Z,11.65
2022-08-17T17:14:02.122Z,10.85
2022-08-17T17:16:35.352Z,12.40
2022-08-17T17:19:34.946Z,11.27
2022-08-17T17:22:30.119Z,11.23
2022-08-17T17:25:16.034Z,10.85
2022-08-17T17:28:07.240Z,13.85
2022-08-17T17:30:57.658Z,10.73
2022-08-17T17:33:42.449Z,10.77
2022-08-17T17:36:43.201Z,10.13
2022-08-17T17:39:19.015Z,10.82
2022-08-17T17:41:58.251Z,12.63
2022-08-17T17:44:34.331Z,10.63
2022-08-17T17:47:04.791Z,10.60
2022-08-17T17:49:46.452Z,10.02
2022-08-17T17:52:53.546Z,9.38
2022-08-17T17:55:37.899Z,9.80
2022-08-17T17:58:49.386Z,8.80
2022-08-17T18:02:02.156Z,8.57
2022-08-17T18:04:47.547Z,9.13
2022-08-17T18:07:39.277Z,9.30
2022-08-17T18:10:31.613Z,8.65
2022-08-17T18:13:26.604Z,9.57
2022-08-17T18:15:56.528Z,8.40
2022-08-17T18:18:37.780Z,7.93
2022-08-17T18:21:18.950Z,8.13
2022-08-17T18:23:57.600Z,8.15
2022-08-17T18:26:42.018Z,9.07
2022-08-17T18:29:30.079Z,7.43
2022-08-17T18:32:33.571Z,8.55
2022-08-17T18:35:08.768Z,8.60
2022-08-17T18:37:42.814Z,8.00
2022-08-17T18:40:19.631Z,9.07
2022-08-17T18:43:43.775Z,9.75
2022-08-17T18:46:35.279Z,8.13
2022-08-17T18:49:32.566Z,8.85
2022-08-17T18:52:33.483Z,8.85
2022-08-17T18:55:17.462Z,8.13
2022-08-17T18:58:10.249Z,8.52
2022-08-17T19:00:41.583Z,8.48
2022-08-17T19:03:18.368Z,9.55
2022-08-17T19:06:17.254Z,9.25
2022-08-17T19:08:45.242Z,9.02
2022-08-17T19:11:39.327Z,9.27
2022-08-17T19:14:17.240Z,10.35
2022-08-17T19:16:53.445Z,9.05
2022-08-17T19:19:58.116Z,10.77
2022-08-17T19:22:49.686Z,8.60
2022-08-17T19:25:30.682Z,10.77
2022-08-17T19:28:04.190Z,10.25
2022-08-17T19:30:55.978Z,11.98
2022-08-17T19:33:23.991Z,10.95
2022-08-17T19:36:28.611Z,9.57
2022-08-17T19:39:37.743Z,8.48
2022-08-17T19:42:29.722Z,10.38
2022-08-17T19:45:27.776Z,12.55
2022-08-17T19:48:41.749Z,8.60
2022-08-17T19:51:35.540Z,9.32
2022-08-17T19:54:39.965Z,9.52
2022-08-17T19:57:25.747Z,8.85
2022-08-17T20:00:05.775Z,9.95
2022-08-17T20:02:53.501Z,9.15
2022-08-17T20:05:40.650Z,10.23
2022-08-17T20:08:33.880Z,10.00
2022-08-17T20:11:41.567Z,9.05
2022-08-17T20:14:17.502Z,10.32
2022-08-17T20:16:44.971Z,10.27
2022-08-17T20:19:39.927Z,9.95
2022-08-17T20:22:20.456Z,10.73
2022-08-17T20:25:07.036Z,10.02
2022-08-17T20:27:51.468Z,10.65
2022-08-17T20:30:41.640Z,9.70
2022-08-17T20:33:36.334Z,11.20
2022-08-17T20:36:20.112Z,10.50
2022-08-17T20:38:54.415Z,10.30
2022-08-17T20:41:30.697Z,9.82
2022-08-17T20:43:58.630Z,9.35
2022-08-17T20:46:37.606Z,11.38
2022-08-17T20:49:39.949Z,10.82
2022-08-17T20:52:15.527Z,9.23
2022-08-17T20:54:57.326Z,9.95
2022-08-17T20:57:33.429Z,11.25
2022-08-17T21:00:19.232Z,11.93
2022-08-17T21:02:50.903Z,10.93
2022-08-17T21:05:53.861Z,10.20
2022-08-17T21:08:45.283Z,10.02
2022-08-17T21:12:03.067Z,11.60
2022-08-17T21:14:54.163Z,10.00
2022-08-17T21:17:42.781Z,12.02
2022-08-17T21:20:59.749Z,11.40
2022-08-17T21:24:07.450Z,10.85
2022-08-17T21:26:57.431Z,10.68
2022-08-17T21:29:31.211Z,10.55
2022-08-17T21:32:03.010Z,11.25
2022-08-17T21:34:38.249Z,10.68
2022-08-17T21:37:21.769Z,11.02
2022-08-17T21:40:19.743Z,11.40
2022-08-17T21:42:58.032Z,11.15
2022-08-17T21:45:35.532Z,10.35
2022-08-17T21:48:21.295Z,9.77
2022-08-17T21:51:10.899Z,10.23
2022-08-17T21:53:48.945Z,10.65
2022-08-17T21:56:30.356Z,11.55
2022-08-17T21:59:24.341Z,11.47
2022-08-17T22:02:07.337Z,9.68
2022-08-17T22:04:41.510Z,10.88
2022-08-17T22:07:13.866Z,10.63
2022-08-17T22:09:48.715Z,12.38
2022-08-17T22:12:24.163Z,12.23
2022-08-17T22:15:04.253Z,9.93
2022-08-17T22:17:40.281Z,12.10
2022-08-17T22:20:19.802Z,10.63
2022-08-17T22:23:08.769Z,12.15
2022-08-17T22:25:56.309Z,11.85
2022-08-17T22:28:52.856Z,11.70
2022-08-17T22:31:32.854Z,10.68
2022-08-17T22:34:00.227Z,11.25
2022-08-17T22:36:41.787Z,10.55
2022-08-17T22:39:09.178Z,10.93
2022-08-17T22:41:50.854Z,10.18
2022-08-17T22:44:27.202Z,10.30
2022-08-17T22:46:58.930Z,10.80
2022-08-17T22:49:54.027Z,11.30
2022-08-17T22:53:03.262Z,10.35
2022-08-17T22:55:52.484Z,10.98
2022-08-17T22:58:42.702Z,10.90
2022-08-17T23:01:32.573Z,11.45
2022-08-17T23:04:13.710Z,11.02
2022-08-17T23:06:44.548Z,12.63
2022-08-17T23:09:11.687Z,12.50
2022-08-17T23:11:53.333Z,10.55
2022-08-17T23:16:50.275Z,10.77
2022-08-17T23:19:21.246Z,10.35
2022-08-17T23:21:50.964Z,12.37
2022-08-17T23:24:24.879Z,11.13
2022-08-17T23:26:52.612Z,12.35
2022-08-17T23:29:21.286Z,10.57
2022-08-17T23:31:50.587Z,12.55
2022-08-17T23:34:18.944Z,10.63
2022-08-17T23:36:50.603Z,9.75
2022-08-17T23:39:24.552Z,10.60
2022-08-17T23:41:57.734Z,9.95
2022-08-17T23:44:26.600Z,8.48
2022-08-17T23:46:55.005Z,9.25
2022-08-17T23:49:24.388Z,8.35
2022-08-17T23:51:54.584Z,8.57
2022-08-17T23:54:41.504Z,8.77
2022-08-17T23:57:20.878Z,8.57
